createdAt,value
2018-07-26T00:01:30.716Z,21.70
2018-07-26T00:03:59.477Z,9.40
2018-07-26T00:06:28.171Z,11.03
2018-07-26T00:08:57.150Z,13.40
2018-07-26T00:11:26.000Z,10.30
2018-07-26T00:13:54.629Z,10.23
2018-07-26T00:16:23.835Z,12.03
2018-07-26T00:18:52.481Z,10.93
2018-07-26T00:21:21.120Z,9.30
2018-07-26T00:23:50.079Z,10.80
2018-07-26T00:26:18.721Z,14.73
2018-07-26T00:28:47.416Z,17.67
2018-07-26T00:31:16.252Z,16.80
2018-07-26T00:33:44.931Z,11.57
2018-07-26T00:36:13.673Z,14.13
2018-07-26T00:38:43.157Z,12.27
2018-07-26T00:41:11.818Z,9.60
2018-07-26T00:43:40.853Z,13.13
2018-07-26T00:46:12.659Z,11.40
2018-07-26T00:48:41.308Z,13.57
2018-07-26T00:51:10.141Z,9.33
2018-07-26T00:53:39.012Z,13.03
2018-07-26T00:56:07.651Z,11.17
2018-07-26T00:58:36.247Z,15.33
2018-07-26T01:01:04.899Z,15.03
2018-07-26T01:03:33.511Z,21.67
2018-07-26T01:06:02.263Z,14.77
2018-07-26T01:08:31.020Z,16.50
2018-07-26T01:11:00.041Z,12.60
2018-07-26T01:13:29.399Z,14.10
2018-07-26T01:15:58.207Z,18.67
2018-07-26T01:18:27.023Z,15.27
2018-07-26T01:20:55.653Z,13.50
2018-07-26T01:23:24.652Z,16.93
2018-07-26T01:25:53.643Z,14.90
2018-07-26T01:28:22.755Z,10.13
2018-07-26T01:30:51.963Z,25.47
2018-07-26T01:33:20.611Z,17.00
2018-07-26T01:35:49.176Z,17.70
2018-07-26T01:38:18.212Z,13.50
2018-07-26T01:40:46.876Z,14.17
2018-07-26T01:43:30.036Z,21.80
2018-07-26T01:45:58.676Z,12.33
2018-07-26T01:48:27.363Z,11.13
2018-07-26T01:50:56.190Z,19.43
2018-07-26T01:53:25.016Z,13.00
2018-07-26T01:55:53.620Z,13.43
2018-07-26T01:58:22.246Z,18.13
2018-07-26T02:00:50.895Z,11.27
2018-07-26T02:03:19.419Z,15.83
2018-07-26T02:05:48.419Z,11.73
2018-07-26T02:08:17.189Z,14.77
2018-07-26T02:10:45.924Z,32.97
2018-07-26T02:13:14.756Z,10.63
2018-07-26T02:15:43.406Z,13.57
2018-07-26T02:18:11.999Z,13.80
2018-07-26T02:20:40.831Z,13.00
2018-07-26T02:23:09.641Z,15.37
2018-07-26T02:25:38.393Z,12.40
2018-07-26T02:28:07.739Z,22.00
2018-07-26T02:30:36.571Z,17.70
2018-07-26T02:33:05.792Z,15.23
2018-07-26T02:35:34.476Z,13.90
2018-07-26T02:38:03.131Z,15.40
2018-07-26T02:40:31.772Z,16.83
2018-07-26T02:43:00.636Z,12.00
2018-07-26T02:45:29.228Z,15.00
2018-07-26T02:47:57.927Z,17.83
2018-07-26T02:50:26.783Z,14.40
2018-07-26T02:52:55.461Z,12.73
2018-07-26T02:55:24.289Z,17.33
2018-07-26T02:57:53.264Z,13.80
2018-07-26T03:00:21.920Z,16.10
2018-07-26T03:02:50.927Z,16.13
2018-07-26T03:05:19.798Z,17.33
2018-07-26T03:07:48.487Z,12.90
2018-07-26T03:10:17.264Z,19.27
2018-07-26T03:12:46.256Z,12.90
2018-07-26T03:15:14.980Z,10.47
2018-07-26T03:17:43.670Z,17.23
2018-07-26T03:20:12.472Z,19.30
2018-07-26T03:22:41.216Z,19.20
2018-07-26T03:25:09.908Z,13.83
2018-07-26T03:27:38.483Z,12.23
2018-07-26T03:30:08.055Z,26.33
2018-07-26T03:32:36.891Z,30.13
2018-07-26T03:35:05.816Z,13.03
2018-07-26T03:37:34.487Z,12.50
2018-07-26T03:40:03.184Z,12.93
2018-07-26T03:42:31.920Z,17.03
2018-07-26T03:45:00.630Z,18.10
2018-07-26T03:47:29.295Z,18.77
2018-07-26T03:49:58.016Z,16.57
2018-07-26T03:52:26.742Z,14.00
2018-07-26T03:54:55.780Z,14.20
2018-07-26T03:57:25.300Z,14.10
2018-07-26T03:59:53.982Z,12.17
2018-07-26T04:02:22.708Z,15.20
2018-07-26T04:04:51.703Z,13.90
2018-07-26T04:07:20.702Z,17.63
2018-07-26T04:09:49.325Z,12.10
2018-07-26T04:12:18.041Z,14.37
2018-07-26T04:14:46.691Z,19.30
2018-07-26T04:17:15.341Z,17.03
2018-07-26T04:19:44.147Z,13.00
2018-07-26T04:22:12.968Z,15.00
2018-07-26T04:24:41.796Z,15.50
2018-07-26T04:27:10.499Z,14.90
2018-07-26T04:29:39.273Z,15.60
2018-07-26T04:32:08.006Z,24.60
2018-07-26T04:34:36.864Z,14.63
2018-07-26T04:37:06.236Z,12.60
2018-07-26T04:39:34.799Z,14.90
2018-07-26T04:42:03.653Z,23.00
2018-07-26T04:44:32.377Z,13.97
2018-07-26T04:47:01.056Z,12.20
2018-07-26T04:49:29.900Z,23.13
2018-07-26T04:51:58.618Z,21.53
2018-07-26T04:54:27.631Z,19.80
2018-07-26T04:56:58.141Z,18.77
2018-07-26T04:59:26.843Z,17.03
2018-07-26T05:01:55.530Z,16.23
2018-07-26T05:04:24.369Z,20.17
2018-07-26T05:06:52.996Z,16.13
2018-07-26T05:09:22.380Z,20.50
2018-07-26T05:11:51.539Z,18.90
2018-07-26T05:14:20.379Z,16.50
2018-07-26T05:16:48.951Z,16.37
2018-07-26T05:19:17.563Z,17.07
2018-07-26T05:21:46.455Z,15.80
2018-07-26T05:24:15.129Z,17.93
2018-07-26T05:26:43.877Z,16.20
2018-07-26T05:29:12.671Z,15.53
2018-07-26T05:31:41.365Z,23.20
2018-07-26T05:34:10.056Z,15.60
2018-07-26T05:36:38.684Z,13.60
2018-07-26T05:39:10.159Z,14.00
2018-07-26T05:41:39.581Z,19.13
2018-07-26T05:44:08.480Z,18.23
2018-07-26T05:46:37.134Z,20.90
2018-07-26T05:49:06.092Z,15.30
2018-07-26T05:51:34.996Z,13.80
2018-07-26T05:54:03.895Z,23.93
2018-07-26T05:56:32.501Z,18.43
2018-07-26T05:59:01.552Z,22.53
2018-07-26T06:01:30.336Z,25.43
2018-07-26T06:03:59.188Z,14.83
2018-07-26T06:06:27.895Z,29.13
2018-07-26T06:08:57.127Z,17.90
2018-07-26T06:11:25.844Z,28.33
2018-07-26T06:13:54.476Z,14.73
2018-07-26T06:16:23.405Z,21.50
2018-07-26T06:18:52.106Z,21.10
2018-07-26T06:21:20.736Z,16.00
2018-07-26T06:23:49.868Z,25.63
2018-07-26T06:26:18.504Z,17.90
2018-07-26T06:28:47.361Z,19.47
2018-07-26T06:31:16.133Z,14.63
2018-07-26T06:33:44.796Z,16.33
2018-07-26T06:36:13.465Z,18.10
2018-07-26T06:38:42.312Z,17.33
2018-07-26T06:41:11.055Z,10.30
2018-07-26T06:43:40.327Z,28.87
2018-07-26T06:46:09.477Z,17.00
2018-07-26T06:48:38.121Z,26.87
2018-07-26T06:51:06.831Z,27.27
2018-07-26T06:53:35.944Z,21.53
2018-07-26T06:56:04.932Z,16.40
2018-07-26T06:58:33.568Z,15.83
2018-07-26T07:01:02.303Z,19.53
2018-07-26T07:03:31.424Z,20.37
2018-07-26T07:06:00.108Z,18.47
2018-07-26T07:08:28.837Z,91.93
2018-07-26T07:10:57.647Z,38.00
2018-07-26T07:13:26.365Z,50.97
2018-07-26T07:15:55.240Z,26.47
2018-07-26T07:18:24.452Z,20.73
2018-07-26T07:20:53.120Z,15.57
2018-07-26T07:23:22.124Z,18.43
2018-07-26T07:25:50.920Z,16.60
2018-07-26T07:28:19.644Z,16.03
2018-07-26T07:30:48.856Z,13.47
2018-07-26T07:33:17.598Z,19.80
2018-07-26T07:35:46.201Z,13.10
2018-07-26T07:38:15.149Z,11.00
2018-07-26T07:40:44.064Z,17.87
2018-07-26T07:43:12.745Z,11.53
2018-07-26T07:45:41.723Z,11.90
2018-07-26T07:48:10.590Z,11.10
2018-07-26T07:50:39.477Z,8.50
2018-07-26T07:53:08.320Z,14.17
2018-07-26T07:55:36.927Z,10.23
2018-07-26T07:58:06.289Z,11.43
2018-07-26T08:00:34.981Z,10.13
2018-07-26T08:03:03.590Z,7.90
2018-07-26T08:05:32.440Z,11.83
2018-07-26T08:08:01.445Z,11.60
2018-07-26T08:10:30.163Z,11.70
2018-07-26T08:12:58.916Z,9.93
2018-07-26T08:15:28.004Z,11.43
2018-07-26T08:17:56.642Z,13.40
2018-07-26T08:20:25.228Z,11.17
2018-07-26T08:22:54.104Z,10.60
2018-07-26T08:25:23.060Z,5.93
2018-07-26T08:27:51.993Z,12.13
2018-07-26T08:30:20.729Z,6.00
2018-07-26T08:32:49.367Z,12.97
2018-07-26T08:35:18.198Z,8.50
2018-07-26T08:37:46.931Z,7.07
2018-07-26T08:40:16.684Z,7.80
2018-07-26T08:42:46.284Z,6.90
2018-07-26T08:45:15.425Z,7.40
2018-07-26T08:47:44.469Z,7.67
2018-07-26T08:50:13.388Z,5.67
2018-07-26T08:52:42.218Z,6.20
2018-07-26T08:55:10.832Z,8.83
2018-07-26T08:57:39.965Z,7.77
2018-07-26T09:00:09.224Z,4.70
2018-07-26T09:02:37.973Z,7.43
2018-07-26T09:05:07.547Z,7.00
2018-07-26T09:07:36.419Z,5.97
2018-07-26T09:10:05.096Z,6.50
2018-07-26T09:12:35.877Z,4.37
2018-07-26T09:15:04.504Z,5.50
2018-07-26T09:17:33.246Z,3.73
2018-07-26T09:20:02.124Z,4.13
2018-07-26T09:22:30.816Z,4.03
2018-07-26T09:24:59.460Z,5.30
2018-07-26T09:27:28.483Z,4.13
2018-07-26T09:29:57.337Z,4.70
2018-07-26T09:32:25.946Z,3.70
2018-07-26T09:34:55.050Z,4.70
2018-07-26T09:37:23.880Z,11.53
2018-07-26T09:39:52.551Z,4.93
2018-07-26T09:42:21.751Z,4.50
2018-07-26T09:44:50.474Z,5.93
2018-07-26T09:47:19.180Z,3.20
2018-07-26T09:49:47.940Z,4.50
2018-07-26T09:52:17.019Z,7.17
2018-07-26T09:54:46.046Z,6.70
2018-07-26T09:57:15.379Z,2.40
2018-07-26T09:59:44.016Z,3.90
2018-07-26T10:02:12.677Z,3.83
2018-07-26T10:04:41.397Z,2.83
2018-07-26T10:07:10.204Z,4.33
2018-07-26T10:09:39.092Z,7.87
2018-07-26T10:12:08.184Z,4.80
2018-07-26T10:14:36.861Z,2.20
2018-07-26T10:17:05.778Z,3.90
2018-07-26T10:19:34.476Z,11.67
2018-07-26T10:22:03.280Z,4.47
2018-07-26T10:24:31.994Z,3.20
2018-07-26T10:27:00.885Z,4.37
2018-07-26T10:29:29.588Z,2.35
2018-07-26T10:31:58.167Z,8.40
2018-07-26T10:34:27.087Z,2.80
2018-07-26T10:36:56.077Z,3.40
2018-07-26T10:39:24.796Z,5.92
2018-07-26T10:41:56.700Z,3.55
2018-07-26T10:44:25.326Z,2.40
2018-07-26T10:46:53.964Z,10.95
2018-07-26T10:49:22.755Z,13.08
2018-07-26T10:51:51.899Z,6.22
2018-07-26T10:54:20.638Z,3.25
2018-07-26T10:56:49.280Z,5.78
2018-07-26T10:59:18.256Z,2.62
2018-07-26T11:01:47.156Z,4.22
2018-07-26T11:04:15.931Z,3.75
2018-07-26T11:06:44.587Z,3.40
2018-07-26T11:09:13.327Z,2.40
2018-07-26T11:11:42.053Z,4.03
2018-07-26T11:14:10.735Z,3.45
2018-07-26T11:16:39.835Z,2.45
2018-07-26T11:19:09.069Z,3.80
2018-07-26T11:21:37.632Z,4.17
2018-07-26T11:24:06.834Z,5.10
2018-07-26T11:26:35.543Z,2.30
2018-07-26T11:29:04.328Z,7.85
2018-07-26T11:31:32.980Z,5.35
2018-07-26T11:34:01.674Z,2.77
2018-07-26T11:36:32.075Z,4.28
2018-07-26T11:39:00.691Z,2.52
2018-07-26T11:41:29.433Z,5.53
2018-07-26T11:43:58.095Z,8.08
2018-07-26T11:46:26.746Z,2.15
2018-07-26T11:48:55.515Z,2.77
2018-07-26T11:51:25.147Z,1.90
2018-07-26T11:53:53.815Z,4.00
2018-07-26T11:56:22.514Z,2.37
2018-07-26T11:58:51.640Z,5.58
2018-07-26T12:01:20.208Z,2.90
2018-07-26T12:03:49.015Z,2.52
2018-07-26T12:06:17.801Z,1.90
2018-07-26T12:08:46.488Z,4.08
2018-07-26T12:11:15.359Z,3.65
2018-07-26T12:13:44.208Z,1.87
2018-07-26T12:16:13.156Z,2.00
2018-07-26T12:18:41.855Z,2.45
2018-07-26T12:21:10.543Z,3.55
2018-07-26T12:23:39.173Z,2.72
2018-07-26T12:26:08.081Z,9.05
2018-07-26T12:28:36.884Z,5.15
2018-07-26T12:31:05.593Z,1.95
2018-07-26T12:33:34.196Z,2.00
2018-07-26T12:36:02.944Z,2.50
2018-07-26T12:38:31.779Z,1.52
2018-07-26T12:41:00.388Z,2.52
2018-07-26T12:43:29.278Z,3.77
2018-07-26T12:45:57.856Z,2.20
2018-07-26T12:48:27.490Z,2.97
2018-07-26T12:50:56.292Z,2.50
2018-07-26T12:53:24.936Z,4.63
2018-07-26T12:55:53.572Z,3.00
2018-07-26T12:58:22.380Z,2.90
2018-07-26T13:00:51.116Z,2.33
2018-07-26T13:03:19.941Z,3.65
2018-07-26T13:05:48.801Z,3.70
2018-07-26T13:08:17.887Z,3.40
2018-07-26T13:10:46.671Z,2.67
2018-07-26T13:13:15.485Z,2.33
2018-07-26T13:15:44.231Z,2.50
2018-07-26T13:18:12.919Z,2.62
2018-07-26T13:20:41.662Z,3.33
2018-07-26T13:23:10.391Z,8.00
2018-07-26T13:25:39.615Z,5.53
2018-07-26T13:28:08.315Z,4.27
2018-07-26T13:30:37.061Z,2.60
2018-07-26T13:33:05.611Z,8.50
2018-07-26T13:35:34.340Z,3.47
2018-07-26T13:38:03.160Z,1.92
2018-07-26T13:40:31.951Z,4.05
2018-07-26T13:43:00.641Z,3.10
2018-07-26T13:45:29.547Z,2.07
2018-07-26T13:47:58.167Z,3.83
2018-07-26T13:50:27.256Z,2.30
2018-07-26T13:52:55.976Z,2.70
2018-07-26T13:55:25.085Z,3.40
2018-07-26T13:57:53.974Z,2.13
2018-07-26T14:00:22.538Z,2.10
2018-07-26T14:02:51.186Z,2.80
2018-07-26T14:05:19.926Z,1.80
2018-07-26T14:07:48.588Z,4.07
2018-07-26T14:10:17.622Z,4.30
2018-07-26T14:12:46.804Z,3.30
2018-07-26T14:15:15.480Z,2.73
2018-07-26T14:17:44.209Z,6.10
2018-07-26T14:20:13.589Z,4.50
2018-07-26T14:22:42.764Z,3.23
2018-07-26T14:25:11.495Z,7.00
2018-07-26T14:27:40.945Z,2.63
2018-07-26T14:30:10.241Z,2.83
2018-07-26T14:32:38.965Z,3.40
2018-07-26T14:35:08.176Z,3.20
2018-07-26T14:37:37.385Z,2.27
2018-07-26T14:40:06.524Z,3.90
2018-07-26T14:42:35.505Z,2.77
2018-07-26T14:45:04.886Z,4.80
2018-07-26T14:47:33.771Z,10.13
2018-07-26T14:50:02.614Z,5.40
2018-07-26T14:52:31.279Z,8.30
2018-07-26T14:55:00.812Z,4.07
2018-07-26T14:57:29.504Z,2.90
2018-07-26T14:59:58.164Z,3.40
2018-07-26T15:02:27.058Z,4.10
2018-07-26T15:04:55.907Z,7.23
2018-07-26T15:07:25.596Z,4.28
2018-07-26T15:09:54.274Z,2.50
2018-07-26T15:12:23.465Z,7.13
2018-07-26T15:14:52.307Z,2.93
2018-07-26T15:17:21.128Z,3.53
2018-07-26T15:19:49.820Z,5.63
2018-07-26T15:22:18.778Z,3.57
2018-07-26T15:24:47.478Z,5.77
2018-07-26T15:27:17.172Z,4.10
2018-07-26T15:29:46.076Z,4.27
2018-07-26T15:32:15.307Z,7.27
2018-07-26T15:34:44.194Z,6.73
2018-07-26T15:37:12.981Z,4.70
2018-07-26T15:39:41.746Z,4.23
2018-07-26T15:42:10.694Z,6.83
2018-07-26T15:44:40.899Z,4.00
2018-07-26T15:47:09.758Z,5.37
2018-07-26T15:49:38.645Z,5.57
2018-07-26T15:52:07.579Z,3.50
2018-07-26T15:54:36.845Z,4.40
2018-07-26T15:57:06.062Z,2.87
2018-07-26T15:59:34.687Z,5.83
2018-07-26T16:02:03.689Z,4.13
2018-07-26T16:04:32.353Z,4.27
2018-07-26T16:07:01.125Z,4.60
2018-07-26T16:09:29.801Z,5.97
2018-07-26T16:11:58.708Z,6.17
2018-07-26T16:14:27.620Z,4.43
2018-07-26T16:16:56.380Z,4.10
2018-07-26T16:19:25.129Z,6.33
2018-07-26T16:21:53.931Z,3.53
2018-07-26T16:24:23.028Z,4.20
2018-07-26T16:26:51.852Z,7.20
2018-07-26T16:29:20.696Z,4.60
2018-07-26T16:31:49.517Z,9.70
2018-07-26T16:34:18.420Z,8.93
2018-07-26T16:36:47.292Z,5.20
2018-07-26T16:39:16.407Z,4.57
2018-07-26T16:41:45.220Z,5.47
2018-07-26T16:44:14.069Z,9.30
2018-07-26T16:46:43.152Z,4.60
2018-07-26T16:49:11.981Z,18.33
2018-07-26T16:51:41.583Z,12.63
2018-07-26T16:54:10.354Z,5.50
2018-07-26T16:56:39.305Z,5.43
2018-07-26T16:59:08.499Z,4.73
2018-07-26T17:01:37.437Z,5.13
2018-07-26T17:04:06.320Z,3.90
2018-07-26T17:06:35.001Z,4.30
2018-07-26T17:09:04.170Z,9.03
2018-07-26T17:11:33.107Z,6.57
2018-07-26T17:14:01.784Z,4.97
2018-07-26T17:16:30.499Z,5.73
2018-07-26T17:18:59.401Z,4.97
2018-07-26T17:21:28.177Z,8.60
2018-07-26T17:23:57.877Z,13.00
2018-07-26T17:26:26.656Z,6.30
2018-07-26T17:28:55.673Z,7.80
2018-07-26T17:31:24.685Z,6.50
2018-07-26T17:33:53.612Z,11.07
2018-07-26T17:36:22.508Z,6.33
2018-07-26T17:38:51.316Z,12.90
2018-07-26T17:41:20.152Z,6.00
2018-07-26T17:43:49.036Z,18.60
2018-07-26T17:46:18.092Z,8.77
2018-07-26T17:48:46.707Z,8.53
2018-07-26T17:51:15.898Z,10.23
2018-07-26T17:53:44.669Z,5.70
2018-07-26T17:56:13.337Z,6.53
2018-07-26T17:58:42.327Z,5.33
2018-07-26T18:01:11.069Z,5.00
2018-07-26T18:03:39.993Z,6.33
2018-07-26T18:06:08.744Z,16.10
2018-07-26T18:08:37.688Z,5.83
2018-07-26T18:11:06.490Z,7.40
2018-07-26T18:13:35.201Z,12.20
2018-07-26T18:16:04.157Z,6.67
2018-07-26T18:18:33.682Z,6.10
2018-07-26T18:21:02.418Z,9.70
2018-07-26T18:23:31.432Z,6.00
2018-07-26T18:26:00.079Z,5.60
2018-07-26T18:28:29.081Z,4.50
2018-07-26T18:30:57.936Z,9.50
2018-07-26T18:33:27.003Z,5.10
2018-07-26T18:35:55.780Z,5.77
2018-07-26T18:38:24.585Z,4.93
2018-07-26T18:40:53.911Z,4.83
2018-07-26T18:43:23.188Z,5.80
2018-07-26T18:45:51.792Z,7.00
2018-07-26T18:48:20.825Z,10.70
2018-07-26T18:50:49.547Z,8.07
2018-07-26T18:53:18.601Z,7.03
2018-07-26T18:55:47.315Z,5.53
2018-07-26T18:58:16.080Z,10.40
2018-07-26T19:00:45.139Z,14.33
2018-07-26T19:03:14.031Z,12.60
2018-07-26T19:05:42.861Z,6.20
2018-07-26T19:08:11.986Z,6.77
2018-07-26T19:10:40.596Z,7.57
2018-07-26T19:13:09.156Z,7.30
2018-07-26T19:15:38.012Z,7.80
2018-07-26T19:18:06.673Z,12.43
2018-07-26T19:20:35.340Z,9.40
2018-07-26T19:23:04.261Z,13.73
2018-07-26T19:25:32.984Z,7.30
2018-07-26T19:28:01.666Z,7.90
2018-07-26T19:30:30.417Z,8.63
2018-07-26T19:32:59.193Z,9.90
2018-07-26T19:35:27.971Z,9.17
2018-07-26T19:37:56.926Z,10.20
2018-07-26T19:40:25.619Z,6.30
2018-07-26T19:42:55.335Z,6.07
2018-07-26T19:45:24.260Z,6.40
2018-07-26T19:47:53.040Z,6.23
2018-07-26T19:50:21.816Z,8.70
2018-07-26T19:52:50.755Z,7.43
2018-07-26T19:55:19.412Z,8.13
2018-07-26T19:57:48.108Z,7.07
2018-07-26T20:00:17.232Z,4.87
2018-07-26T20:02:45.920Z,6.37
2018-07-26T20:05:14.616Z,7.40
2018-07-26T20:07:43.546Z,8.00
2018-07-26T20:10:13.690Z,12.00
2018-07-26T20:12:42.691Z,5.07
2018-07-26T20:15:11.541Z,8.57
2018-07-26T20:17:40.395Z,5.73
2018-07-26T20:20:10.914Z,14.00
2018-07-26T20:22:39.542Z,12.10
2018-07-26T20:25:08.267Z,8.93
2018-07-26T20:27:36.972Z,10.80
2018-07-26T20:30:08.008Z,10.03
2018-07-26T20:32:37.474Z,7.60
2018-07-26T20:35:06.796Z,8.33
2018-07-26T20:37:35.481Z,12.53
2018-07-26T20:40:04.906Z,12.63
2018-07-26T20:42:33.684Z,9.23
2018-07-26T20:45:02.659Z,8.07
2018-07-26T20:47:31.689Z,8.77
2018-07-26T20:50:00.567Z,8.20
2018-07-26T20:52:29.243Z,8.70
2018-07-26T20:54:58.249Z,12.83
2018-07-26T20:57:27.031Z,12.20
2018-07-26T20:59:55.737Z,8.00
2018-07-26T21:02:24.625Z,11.83
2018-07-26T21:04:53.558Z,13.57
2018-07-26T21:07:22.724Z,7.53
2018-07-26T21:09:51.817Z,10.27
2018-07-26T21:12:20.759Z,5.30
2018-07-26T21:14:49.643Z,9.03
2018-07-26T21:17:18.244Z,12.73
2018-07-26T21:19:46.865Z,15.33
2018-07-26T21:22:15.590Z,10.13
2018-07-26T21:24:44.426Z,10.60
2018-07-26T21:27:13.177Z,16.80
2018-07-26T21:29:41.869Z,8.70
2018-07-26T21:32:10.811Z,10.40
2018-07-26T21:34:39.534Z,14.83
2018-07-26T21:37:08.281Z,12.93
2018-07-26T21:39:36.971Z,13.83
2018-07-26T21:42:05.828Z,8.83
2018-07-26T21:44:34.860Z,14.80
2018-07-26T21:47:04.235Z,10.03
2018-07-26T21:49:33.062Z,10.10
2018-07-26T21:52:01.671Z,10.27
2018-07-26T21:54:30.424Z,17.20
2018-07-26T21:56:59.208Z,14.60
2018-07-26T21:59:27.832Z,8.23
2018-07-26T22:01:56.967Z,8.80
2018-07-26T22:04:25.781Z,8.43
2018-07-26T22:06:54.462Z,8.50
2018-07-26T22:09:23.117Z,11.23
2018-07-26T22:11:52.245Z,12.83
2018-07-26T22:14:20.859Z,18.10
2018-07-26T22:16:49.719Z,16.47
2018-07-26T22:19:18.472Z,13.97
2018-07-26T22:21:48.206Z,12.33
2018-07-26T22:24:17.063Z,13.03
2018-07-26T22:26:46.696Z,9.43
2018-07-26T22:29:15.843Z,9.27
2018-07-26T22:31:45.122Z,11.93
2018-07-26T22:34:14.548Z,7.67
2018-07-26T22:36:43.364Z,15.00
2018-07-26T22:39:13.315Z,10.87
2018-07-26T22:41:42.932Z,6.97
2018-07-26T22:44:13.534Z,8.20
2018-07-26T22:46:42.948Z,12.43
2018-07-26T22:49:11.824Z,11.70
2018-07-26T22:51:41.084Z,26.53
2018-07-26T22:54:09.995Z,17.60
2018-07-26T22:56:38.961Z,10.90
2018-07-26T22:59:08.258Z,9.40
2018-07-26T23:01:38.066Z,9.93
2018-07-26T23:04:09.529Z,19.60
2018-07-26T23:06:38.330Z,9.60
2018-07-26T23:09:09.635Z,10.17
2018-07-26T23:11:38.608Z,9.27
2018-07-26T23:14:08.007Z,10.97
2018-07-26T23:16:54.937Z,11.93
2018-07-26T23:19:24.210Z,13.97
2018-07-26T23:21:52.992Z,12.77
2018-07-26T23:24:22.194Z,10.57
2018-07-26T23:26:51.424Z,17.33
2018-07-26T23:29:20.359Z,9.77
2018-07-26T23:31:49.340Z,18.50
2018-07-26T23:34:18.160Z,17.33
2018-07-26T23:36:46.975Z,15.60
2018-07-26T23:39:15.914Z,10.23
2018-07-26T23:41:44.626Z,10.77
2018-07-26T23:44:13.450Z,17.03
2018-07-26T23:46:43.042Z,10.43
2018-07-26T23:49:12.858Z,13.13
2018-07-26T23:51:42.297Z,18.80
2018-07-26T23:54:12.060Z,8.30
2018-07-26T23:56:42.029Z,10.53
2018-07-26T23:59:10.844Z,9.00
